createdAt,value
2023-03-06T00:00:10.606Z,8.32
2023-03-06T00:00:28.709Z,7.82
2023-03-06T00:00:44.761Z,7.60
2023-03-06T00:00:59.668Z,8.38
2023-03-06T00:01:17.122Z,8.65
2023-03-06T00:01:29.255Z,8.35
2023-03-06T00:01:41.371Z,8.30
2023-03-06T00:01:53.405Z,8.15
2023-03-06T00:02:05.619Z,8.38
2023-03-06T00:02:17.748Z,8.63
2023-03-06T00:02:31.222Z,8.45
2023-03-06T00:02:44.234Z,8.40
2023-03-06T00:02:57.015Z,8.25
2023-03-06T00:03:09.910Z,8.30
2023-03-06T00:03:22.556Z,8.25
2023-03-06T00:03:34.718Z,8.43
2023-03-06T00:03:47.189Z,7.90
2023-03-06T00:03:59.670Z,7.43
2023-03-06T00:04:11.570Z,7.60
2023-03-06T00:04:23.741Z,7.78
2023-03-06T00:04:36.473Z,8.10
2023-03-06T00:04:48.744Z,7.78
2023-03-06T00:05:01.044Z,7.43
2023-03-06T00:05:14.026Z,7.75
2023-03-06T00:05:27.685Z,8.15
2023-03-06T00:05:41.671Z,8.23
2023-03-06T00:05:54.036Z,7.75
2023-03-06T00:06:06.859Z,7.78
2023-03-06T00:06:19.323Z,7.72
2023-03-06T00:06:32.655Z,7.85
2023-03-06T00:06:45.356Z,8.23
2023-03-06T00:06:57.706Z,8.38
2023-03-06T00:07:12.085Z,8.52
2023-03-06T00:07:26.220Z,8.73
2023-03-06T00:07:39.434Z,8.55
2023-03-06T00:07:52.024Z,8.32
2023-03-06T00:08:06.105Z,8.30
2023-03-06T00:08:18.467Z,8.57
2023-03-06T00:08:32.238Z,8.63
2023-03-06T00:08:45.084Z,8.32
2023-03-06T00:08:58.153Z,8.43
2023-03-06T00:09:11.260Z,8.50
2023-03-06T00:09:23.736Z,8.52
2023-03-06T00:09:36.038Z,8.40
2023-03-06T00:09:48.323Z,8.63
2023-03-06T00:10:00.227Z,8.82
2023-03-06T00:10:14.829Z,8.77
2023-03-06T00:10:29.771Z,8.55
2023-03-06T00:10:42.100Z,8.90
2023-03-06T00:10:54.516Z,9.05
2023-03-06T00:11:07.197Z,9.13
2023-03-06T00:11:19.611Z,8.93
2023-03-06T00:11:31.853Z,9.30
2023-03-06T00:11:44.121Z,9.27
2023-03-06T00:11:56.842Z,9.32
2023-03-06T00:12:10.252Z,9.15
2023-03-06T00:12:23.692Z,9.77
2023-03-06T00:12:35.917Z,9.70
2023-03-06T00:12:49.130Z,9.30
2023-03-06T00:13:03.059Z,9.10
2023-03-06T00:13:17.798Z,9.80
2023-03-06T00:13:29.986Z,10.13
2023-03-06T00:13:42.213Z,10.30
2023-03-06T00:13:54.722Z,10.23
2023-03-06T00:14:06.743Z,9.85
2023-03-06T00:14:18.584Z,9.52
2023-03-06T00:14:30.547Z,9.73
2023-03-06T00:14:43.065Z,9.60
2023-03-06T00:14:55.461Z,9.93
2023-03-06T00:15:09.898Z,9.82
2023-03-06T00:15:24.039Z,9.70
2023-03-06T00:15:37.272Z,10.10
2023-03-06T00:15:50.369Z,10.35
2023-03-06T00:16:03.916Z,10.70
2023-03-06T00:16:16.169Z,10.77
2023-03-06T00:16:29.849Z,10.70
2023-03-06T00:16:42.540Z,10.38
2023-03-06T00:16:55.287Z,10.40
2023-03-06T00:17:09.802Z,10.68
2023-03-06T00:17:23.334Z,10.98
2023-03-06T00:17:35.647Z,10.60
2023-03-06T00:17:50.203Z,10.52
2023-03-06T00:18:03.619Z,11.15
2023-03-06T00:18:16.518Z,11.05
2023-03-06T00:18:28.832Z,10.15
2023-03-06T00:18:41.876Z,10.45
2023-03-06T00:18:54.210Z,10.30
2023-03-06T00:19:07.254Z,9.90
2023-03-06T00:19:19.787Z,10.05
2023-03-06T00:19:32.506Z,9.90
2023-03-06T00:19:45.015Z,9.80
2023-03-06T00:19:57.432Z,10.18
2023-03-06T00:20:10.809Z,10.45
2023-03-06T00:20:25.092Z,10.35
2023-03-06T00:20:39.021Z,10.52
2023-03-06T00:20:51.254Z,10.60
2023-03-06T00:21:07.611Z,10.13
2023-03-06T00:21:19.457Z,9.77
2023-03-06T00:21:31.806Z,9.93
2023-03-06T00:21:44.707Z,10.23
2023-03-06T00:21:57.270Z,10.50
2023-03-06T00:22:15.409Z,10.70
2023-03-06T00:22:27.244Z,10.27
2023-03-06T00:22:40.817Z,10.30
2023-03-06T00:22:53.370Z,11.00
2023-03-06T00:23:06.089Z,11.02
2023-03-06T00:23:18.379Z,10.68
2023-03-06T00:23:32.031Z,10.38
2023-03-06T00:23:44.379Z,10.50
2023-03-06T00:23:57.116Z,10.43
2023-03-06T00:24:09.166Z,10.15
2023-03-06T00:24:22.371Z,10.25
2023-03-06T00:24:35.978Z,10.20
2023-03-06T00:24:49.416Z,10.13
2023-03-06T00:25:04.693Z,10.00
2023-03-06T00:25:18.955Z,9.84
2023-03-06T00:25:31.130Z,9.85
2023-03-06T00:25:44.177Z,9.85
2023-03-06T00:25:56.799Z,9.48
2023-03-06T00:26:10.688Z,9.15
2023-03-06T00:26:25.405Z,9.35
2023-03-06T00:26:39.350Z,9.90
2023-03-06T00:26:52.759Z,9.75
2023-03-06T00:27:05.226Z,9.85
2023-03-06T00:27:17.658Z,9.82
2023-03-06T00:27:31.160Z,9.88
2023-03-06T00:27:43.363Z,9.93
2023-03-06T00:27:55.709Z,9.98
2023-03-06T00:28:09.307Z,9.95
2023-03-06T00:28:21.773Z,10.05
2023-03-06T00:28:33.835Z,9.77
2023-03-06T00:28:46.560Z,9.77
2023-03-06T00:28:58.774Z,9.75
2023-03-06T00:29:11.695Z,9.80
2023-03-06T00:29:24.402Z,9.55
2023-03-06T00:29:36.533Z,9.20
2023-03-06T00:29:48.981Z,9.32
2023-03-06T00:30:02.242Z,9.48
2023-03-06T00:30:16.892Z,9.57
2023-03-06T00:30:29.010Z,9.75
2023-03-06T00:30:41.437Z,9.93
2023-03-06T00:30:53.721Z,10.15
2023-03-06T00:31:06.472Z,9.90
2023-03-06T00:31:19.364Z,9.75
2023-03-06T00:31:33.150Z,9.60
2023-03-06T00:31:45.820Z,9.75
2023-03-06T00:31:58.106Z,9.90
2023-03-06T00:32:11.790Z,9.93
2023-03-06T00:32:25.240Z,9.57
2023-03-06T00:32:37.880Z,9.43
2023-03-06T00:32:50.416Z,9.30
2023-03-06T00:33:03.307Z,9.48
2023-03-06T00:33:16.624Z,9.68
2023-03-06T00:33:29.058Z,9.35
2023-03-06T00:33:41.607Z,9.55
2023-03-06T00:33:54.027Z,9.48
2023-03-06T00:34:07.176Z,9.32
2023-03-06T00:34:19.476Z,9.93
2023-03-06T00:34:32.340Z,9.93
2023-03-06T00:34:48.179Z,9.70
2023-03-06T00:35:01.058Z,9.93
2023-03-06T00:35:14.782Z,9.65
2023-03-06T00:35:28.894Z,9.30
2023-03-06T00:35:42.056Z,9.68
2023-03-06T00:35:54.366Z,9.75
2023-03-06T00:36:07.264Z,9.55
2023-03-06T00:36:19.873Z,9.68
2023-03-06T00:36:32.236Z,9.90
2023-03-06T00:36:45.536Z,9.77
2023-03-06T00:36:58.259Z,9.15
2023-03-06T00:37:11.470Z,9.23
2023-03-06T00:37:25.230Z,9.55
2023-03-06T00:37:38.102Z,9.93
2023-03-06T00:37:51.584Z,10.10
2023-03-06T00:38:03.846Z,10.00
2023-03-06T00:38:18.018Z,9.77
2023-03-06T00:38:30.938Z,9.48
2023-03-06T00:38:43.104Z,8.82
2023-03-06T00:38:55.645Z,8.88
2023-03-06T00:39:10.152Z,9.38
2023-03-06T00:39:22.365Z,9.35
2023-03-06T00:39:34.496Z,8.60
2023-03-06T00:39:47.152Z,8.95
2023-03-06T00:40:00.698Z,9.02
2023-03-06T00:40:15.816Z,9.07
2023-03-06T00:40:30.007Z,9.27
2023-03-06T00:40:42.650Z,9.20
2023-03-06T00:40:54.680Z,8.93
2023-03-06T00:41:08.237Z,9.13
2023-03-06T00:41:21.117Z,9.25
2023-03-06T00:41:33.216Z,9.20
2023-03-06T00:41:47.016Z,9.45
2023-03-06T00:41:59.750Z,9.57
2023-03-06T00:42:12.745Z,9.52
2023-03-06T00:42:25.079Z,8.95
2023-03-06T00:42:37.402Z,8.93
2023-03-06T00:42:50.391Z,8.88
2023-03-06T00:43:07.199Z,8.98
2023-03-06T00:43:21.486Z,8.65
2023-03-06T00:43:34.670Z,9.02
2023-03-06T00:43:48.086Z,9.52
2023-03-06T00:44:00.554Z,8.93
2023-03-06T00:44:14.179Z,8.98
2023-03-06T00:44:26.335Z,9.07
2023-03-06T00:44:39.530Z,9.30
2023-03-06T00:44:54.206Z,9.57
2023-03-06T00:45:10.744Z,9.50
2023-03-06T00:45:25.471Z,9.32
2023-03-06T00:45:37.837Z,8.98
2023-03-06T00:45:50.676Z,9.02
2023-03-06T00:46:03.185Z,9.50
2023-03-06T00:46:15.449Z,9.68
2023-03-06T00:46:27.794Z,9.05
2023-03-06T00:46:42.195Z,8.90
2023-03-06T00:46:54.910Z,9.15
2023-03-06T00:47:09.693Z,9.32
2023-03-06T00:47:21.814Z,9.43
2023-03-06T00:47:34.743Z,9.43
2023-03-06T00:47:47.734Z,9.45
2023-03-06T00:48:00.927Z,9.63
2023-03-06T00:48:13.201Z,9.23
2023-03-06T00:48:25.445Z,9.30
2023-03-06T00:48:37.736Z,9.10
2023-03-06T00:48:49.925Z,8.95
2023-03-06T00:49:04.459Z,8.95
2023-03-06T00:49:16.837Z,8.77
2023-03-06T00:49:29.795Z,8.80
2023-03-06T00:49:44.738Z,9.05
2023-03-06T00:49:58.490Z,9.40
2023-03-06T00:50:11.655Z,9.10
2023-03-06T00:50:23.958Z,8.88
2023-03-06T00:50:36.977Z,9.32
2023-03-06T00:50:49.470Z,9.63
2023-03-06T00:51:01.848Z,9.20
2023-03-06T00:51:14.654Z,9.10
2023-03-06T00:51:28.576Z,9.10
2023-03-06T00:51:40.615Z,9.13
2023-03-06T00:51:52.601Z,9.50
2023-03-06T00:52:06.343Z,9.45
2023-03-06T00:52:19.395Z,9.25
2023-03-06T00:52:31.921Z,9.25
2023-03-06T00:52:44.758Z,9.00
2023-03-06T00:52:58.540Z,8.93
2023-03-06T00:53:11.513Z,9.75
2023-03-06T00:53:24.122Z,10.30
2023-03-06T00:53:36.626Z,9.90
2023-03-06T00:53:48.808Z,9.18
2023-03-06T00:54:03.293Z,9.25
2023-03-06T00:54:15.035Z,9.40
2023-03-06T00:54:27.447Z,9.73
2023-03-06T00:54:39.704Z,9.92
2023-03-06T00:54:54.345Z,9.77
2023-03-06T00:55:08.082Z,9.18
2023-03-06T00:55:20.093Z,9.27
2023-03-06T00:55:32.081Z,9.25
2023-03-06T00:55:44.556Z,9.20
2023-03-06T00:55:57.217Z,9.60
2023-03-06T00:56:09.189Z,9.98
2023-03-06T00:56:21.617Z,9.70
2023-03-06T00:56:34.208Z,9.77
2023-03-06T00:56:46.334Z,9.65
2023-03-06T00:56:59.242Z,9.32
2023-03-06T00:57:12.683Z,8.85
2023-03-06T00:57:24.598Z,8.88
2023-03-06T00:57:36.876Z,9.07
2023-03-06T00:57:51.129Z,9.57
2023-03-06T00:58:03.615Z,9.48
2023-03-06T00:58:23.705Z,8.95
2023-03-06T00:58:36.078Z,9.27
2023-03-06T00:58:48.061Z,9.73
2023-03-06T00:59:00.150Z,10.00
2023-03-06T00:59:12.566Z,9.65
2023-03-06T00:59:24.776Z,9.90
2023-03-06T00:59:38.186Z,9.52
2023-03-06T00:59:50.506Z,9.18
2023-03-06T01:00:02.625Z,9.00
2023-03-06T01:00:15.320Z,9.10
2023-03-06T01:00:27.530Z,9.15
2023-03-06T01:00:40.116Z,8.82
2023-03-06T01:00:53.159Z,8.70
2023-03-06T01:01:05.572Z,8.68
2023-03-06T01:01:17.589Z,8.88
2023-03-06T01:01:29.813Z,9.10
2023-03-06T01:01:42.407Z,9.13
2023-03-06T01:01:54.233Z,8.70
2023-03-06T01:02:06.829Z,8.23
2023-03-06T01:02:19.339Z,8.68
2023-03-06T01:02:32.092Z,9.20
2023-03-06T01:02:44.098Z,9.55
2023-03-06T01:02:56.224Z,9.07
2023-03-06T01:03:09.437Z,8.75
2023-03-06T01:03:22.164Z,8.80
2023-03-06T01:03:39.132Z,8.73
2023-03-06T01:03:51.515Z,8.52
2023-03-06T01:04:05.745Z,8.68
2023-03-06T01:04:18.288Z,8.88
2023-03-06T01:04:33.445Z,8.52
2023-03-06T01:04:46.176Z,8.75
2023-03-06T01:04:59.726Z,9.02
2023-03-06T01:05:13.322Z,8.45
2023-03-06T01:05:26.305Z,8.77
2023-03-06T01:05:39.505Z,8.98
2023-03-06T01:05:52.100Z,8.65
2023-03-06T01:06:04.406Z,8.60
2023-03-06T01:06:16.512Z,8.43
2023-03-06T01:06:28.828Z,8.52
2023-03-06T01:06:41.540Z,8.52
2023-03-06T01:06:54.457Z,8.30
2023-03-06T01:07:06.669Z,8.07
2023-03-06T01:07:20.440Z,8.38
2023-03-06T01:07:32.234Z,8.93
2023-03-06T01:07:44.377Z,8.75
2023-03-06T01:07:58.152Z,8.45
2023-03-06T01:08:12.069Z,7.93
2023-03-06T01:08:24.568Z,8.23
2023-03-06T01:08:37.552Z,8.48
2023-03-06T01:08:50.493Z,8.38
2023-03-06T01:09:04.513Z,8.32
2023-03-06T01:09:16.688Z,8.23
2023-03-06T01:09:30.106Z,7.95
2023-03-06T01:09:42.498Z,7.82
2023-03-06T01:09:55.690Z,7.80
2023-03-06T01:10:10.550Z,8.48
2023-03-06T01:10:22.649Z,8.75
2023-03-06T01:10:37.953Z,8.60
2023-03-06T01:10:50.375Z,8.63
2023-03-06T01:11:02.692Z,8.60
2023-03-06T01:11:15.193Z,8.75
2023-03-06T01:11:28.956Z,8.93
2023-03-06T01:11:41.279Z,8.70
2023-03-06T01:11:53.681Z,8.43
2023-03-06T01:12:06.760Z,7.97
2023-03-06T01:12:22.846Z,8.05
2023-03-06T01:12:36.649Z,8.38
2023-03-06T01:12:48.813Z,8.50
2023-03-06T01:13:01.605Z,8.30
2023-03-06T01:13:14.102Z,8.43
2023-03-06T01:13:26.528Z,8.60
2023-03-06T01:13:39.160Z,8.38
2023-03-06T01:13:51.806Z,8.38
2023-03-06T01:14:05.940Z,7.85
2023-03-06T01:14:17.950Z,7.95
2023-03-06T01:14:30.199Z,8.13
2023-03-06T01:14:42.493Z,8.15
2023-03-06T01:14:55.116Z,8.05
2023-03-06T01:15:08.985Z,8.43
2023-03-06T01:15:21.696Z,8.63
2023-03-06T01:15:34.060Z,8.40
2023-03-06T01:15:47.912Z,8.82
2023-03-06T01:16:07.352Z,8.82
2023-03-06T01:16:20.113Z,8.38
2023-03-06T01:16:34.203Z,8.25
2023-03-06T01:16:46.429Z,8.35
2023-03-06T01:16:58.829Z,8.57
2023-03-06T01:17:12.228Z,8.77
2023-03-06T01:17:24.611Z,8.90
2023-03-06T01:17:37.025Z,8.95
2023-03-06T01:17:51.676Z,8.32
2023-03-06T01:18:04.186Z,7.97
2023-03-06T01:18:16.381Z,8.05
2023-03-06T01:18:28.957Z,8.07
2023-03-06T01:18:43.145Z,8.07
2023-03-06T01:18:55.750Z,8.32
2023-03-06T01:19:08.505Z,8.30
2023-03-06T01:19:23.410Z,8.32
2023-03-06T01:19:35.459Z,8.60
2023-03-06T01:19:48.124Z,8.75
2023-03-06T01:20:00.371Z,8.60
2023-03-06T01:20:15.076Z,7.95
2023-03-06T01:20:28.347Z,7.80
2023-03-06T01:20:40.745Z,8.12
2023-03-06T01:20:53.539Z,8.07
2023-03-06T01:21:07.118Z,8.43
2023-03-06T01:21:20.243Z,8.90
2023-03-06T01:21:33.374Z,8.77
2023-03-06T01:21:45.844Z,8.55
2023-03-06T01:21:58.135Z,8.73
2023-03-06T01:22:10.866Z,8.73
2023-03-06T01:22:23.533Z,8.73
2023-03-06T01:22:38.526Z,8.55
2023-03-06T01:22:52.452Z,8.68
2023-03-06T01:23:05.712Z,8.75
2023-03-06T01:23:17.969Z,8.90
2023-03-06T01:23:33.250Z,9.27
2023-03-06T01:23:45.702Z,9.00
2023-03-06T01:23:59.409Z,8.40
2023-03-06T01:24:13.408Z,8.32
2023-03-06T01:24:26.182Z,8.45
2023-03-06T01:24:43.897Z,9.18
2023-03-06T01:24:56.398Z,9.40
2023-03-06T01:25:09.880Z,9.27
2023-03-06T01:25:22.116Z,9.35
2023-03-06T01:25:37.622Z,8.73
2023-03-06T01:25:50.454Z,8.88
2023-03-06T01:26:06.080Z,9.95
2023-03-06T01:26:20.220Z,9.57
2023-03-06T01:26:32.639Z,9.30
2023-03-06T01:26:51.756Z,9.50
2023-03-06T01:27:04.853Z,9.30
2023-03-06T01:27:17.453Z,8.73
2023-03-06T01:27:29.649Z,8.57
2023-03-06T01:27:43.358Z,8.70
2023-03-06T01:27:56.834Z,8.80
2023-03-06T01:28:09.109Z,8.45
2023-03-06T01:28:21.558Z,8.40
2023-03-06T01:28:34.051Z,8.30
2023-03-06T01:28:47.840Z,8.73
2023-03-06T01:29:00.023Z,8.98
2023-03-06T01:29:13.402Z,9.00
2023-03-06T01:29:26.071Z,9.10
2023-03-06T01:29:38.674Z,9.00
2023-03-06T01:29:50.948Z,9.95
2023-03-06T01:30:04.045Z,12.95
2023-03-06T01:30:17.211Z,14.93
2023-03-06T01:30:29.628Z,14.63
2023-03-06T01:30:42.532Z,14.00
2023-03-06T01:30:54.856Z,13.75
2023-03-06T01:31:08.075Z,14.35
2023-03-06T01:31:20.485Z,14.52
2023-03-06T01:31:33.133Z,14.63
2023-03-06T01:31:48.182Z,13.95
2023-03-06T01:32:01.136Z,12.05
2023-03-06T01:32:13.373Z,11.25
2023-03-06T01:32:27.096Z,11.00
2023-03-06T01:32:39.707Z,10.63
2023-03-06T01:32:53.062Z,11.32
2023-03-06T01:33:05.873Z,11.95
2023-03-06T01:33:18.059Z,11.13
2023-03-06T01:33:30.509Z,9.63
2023-03-06T01:33:43.531Z,9.18
2023-03-06T01:33:56.129Z,9.07
2023-03-06T01:34:08.447Z,9.82
2023-03-06T01:34:21.101Z,9.95
2023-03-06T01:34:34.120Z,9.32
2023-03-06T01:34:46.758Z,9.43
2023-03-06T01:34:59.427Z,10.00
2023-03-06T01:35:12.989Z,10.05
2023-03-06T01:35:26.147Z,9.25
2023-03-06T01:35:38.485Z,9.60
2023-03-06T01:35:53.189Z,9.32
2023-03-06T01:36:07.496Z,9.07
2023-03-06T01:36:19.781Z,9.38
2023-03-06T01:36:32.288Z,9.05
2023-03-06T01:36:45.206Z,9.05
2023-03-06T01:36:57.928Z,8.70
2023-03-06T01:37:10.936Z,8.68
2023-03-06T01:37:23.030Z,9.13
2023-03-06T01:37:35.941Z,9.52
2023-03-06T01:37:48.790Z,9.73
2023-03-06T01:38:01.319Z,9.63
2023-03-06T01:38:15.578Z,9.05
2023-03-06T01:38:27.953Z,9.23
2023-03-06T01:38:40.211Z,9.80
2023-03-06T01:38:52.572Z,9.30
2023-03-06T01:39:05.485Z,8.75
2023-03-06T01:39:17.827Z,8.57
2023-03-06T01:39:30.782Z,10.13
2023-03-06T01:39:42.625Z,11.10
2023-03-06T01:39:55.045Z,10.60
2023-03-06T01:40:10.236Z,10.10
2023-03-06T01:40:22.716Z,10.13
2023-03-06T01:40:37.813Z,10.20
2023-03-06T01:40:51.939Z,10.25
2023-03-06T01:41:04.786Z,9.93
2023-03-06T01:41:17.507Z,10.23
2023-03-06T01:41:29.857Z,9.88
2023-03-06T01:41:42.548Z,9.43
2023-03-06T01:41:55.302Z,9.07
2023-03-06T01:42:07.954Z,9.10
2023-03-06T01:42:20.651Z,9.75
2023-03-06T01:42:32.893Z,10.23
2023-03-06T01:42:50.247Z,10.45
2023-03-06T01:43:10.004Z,9.98
2023-03-06T01:43:29.004Z,9.30
2023-03-06T01:43:42.242Z,10.20
2023-03-06T01:43:54.467Z,10.77
2023-03-06T01:44:08.019Z,9.98
2023-03-06T01:44:20.560Z,9.75
2023-03-06T01:44:33.617Z,9.82
2023-03-06T01:45:07.460Z,9.52
2023-03-06T01:45:57.774Z,9.25
2023-03-06T01:46:38.178Z,9.18
2023-03-06T01:46:51.230Z,10.48
2023-03-06T01:47:03.662Z,9.50
2023-03-06T01:47:15.895Z,10.57
2023-03-06T01:47:28.413Z,11.80
2023-03-06T01:47:40.911Z,11.85
2023-03-06T01:47:53.772Z,11.20
2023-03-06T01:48:06.036Z,10.75
2023-03-06T01:48:20.618Z,10.43
2023-03-06T01:48:35.411Z,9.82
2023-03-06T01:48:48.505Z,9.10
2023-03-06T01:49:04.468Z,8.55
2023-03-06T01:49:20.643Z,9.20
2023-03-06T01:49:37.271Z,10.10
2023-03-06T01:49:50.196Z,10.20
2023-03-06T01:50:03.902Z,10.18
2023-03-06T01:50:16.771Z,10.35
2023-03-06T01:50:29.391Z,10.63
2023-03-06T01:50:42.527Z,10.30
2023-03-06T01:50:55.704Z,9.45
2023-03-06T01:51:09.637Z,8.52
2023-03-06T01:51:21.971Z,8.75
2023-03-06T01:51:38.652Z,9.35
2023-03-06T01:51:53.701Z,8.95
2023-03-06T01:52:09.116Z,8.52
2023-03-06T01:52:24.110Z,8.50
2023-03-06T01:52:43.624Z,8.38
2023-03-06T01:53:00.069Z,8.50
2023-03-06T01:53:14.109Z,8.38
2023-03-06T01:53:27.958Z,8.00
2023-03-06T01:53:41.362Z,8.60
2023-03-06T01:53:54.273Z,9.20
2023-03-06T01:54:10.666Z,9.10
2023-03-06T01:54:25.348Z,8.77
2023-03-06T01:54:42.814Z,8.30
2023-03-06T01:54:59.112Z,8.57
2023-03-06T01:55:15.713Z,8.55
2023-03-06T01:55:33.418Z,8.70
2023-03-06T01:55:46.074Z,8.75
2023-03-06T01:55:58.790Z,8.57
2023-03-06T01:56:13.046Z,8.30
2023-03-06T01:56:26.165Z,8.20
2023-03-06T01:56:41.928Z,8.38
2023-03-06T01:56:57.891Z,8.40
2023-03-06T01:57:13.713Z,8.13
2023-03-06T01:57:28.979Z,8.02
2023-03-06T01:57:44.412Z,8.10
2023-03-06T01:57:59.438Z,8.48
2023-03-06T01:58:17.776Z,8.27
2023-03-06T01:58:30.151Z,8.07
2023-03-06T01:58:44.554Z,7.95
2023-03-06T01:58:57.373Z,8.20
2023-03-06T01:59:09.736Z,8.35
2023-03-06T01:59:22.872Z,8.07
2023-03-06T01:59:38.442Z,7.97
2023-03-06T01:59:55.703Z,8.50
2023-03-06T02:00:13.374Z,8.40
2023-03-06T02:00:29.531Z,8.23
2023-03-06T02:00:42.142Z,8.65
2023-03-06T02:00:54.905Z,8.80
2023-03-06T02:01:10.121Z,8.73
2023-03-06T02:01:23.002Z,8.27
2023-03-06T02:01:36.699Z,8.07
2023-03-06T02:01:50.275Z,8.23
2023-03-06T02:02:04.080Z,8.27
2023-03-06T02:02:19.557Z,8.30
2023-03-06T02:02:31.443Z,8.38
2023-03-06T02:02:49.240Z,8.05
2023-03-06T02:03:06.622Z,7.97
2023-03-06T02:03:22.864Z,7.82
2023-03-06T02:03:35.991Z,7.95
2023-03-06T02:03:50.526Z,8.27
2023-03-06T02:04:11.554Z,8.35
2023-03-06T02:04:24.711Z,7.85
2023-03-06T02:04:38.701Z,7.63
2023-03-06T02:04:51.217Z,8.10
2023-03-06T02:05:06.835Z,7.95
2023-03-06T02:05:19.778Z,7.40
2023-03-06T02:05:32.735Z,7.38
2023-03-06T02:05:47.610Z,7.95
2023-03-06T02:06:02.342Z,8.38
2023-03-06T02:06:19.010Z,8.57
2023-03-06T02:06:32.506Z,8.30
2023-03-06T02:06:49.315Z,8.02
2023-03-06T02:07:04.414Z,8.13
2023-03-06T02:07:20.743Z,8.00
2023-03-06T02:07:33.776Z,7.72
2023-03-06T02:07:47.359Z,7.70
2023-03-06T02:08:00.235Z,8.23
2023-03-06T02:08:16.089Z,8.45
2023-03-06T02:08:32.926Z,8.98
2023-03-06T02:08:45.277Z,8.43
2023-03-06T02:08:57.910Z,8.15
2023-03-06T02:09:12.355Z,8.52
2023-03-06T02:09:24.579Z,8.43
2023-03-06T02:09:39.552Z,8.27
2023-03-06T02:09:53.551Z,8.10
2023-03-06T02:10:06.163Z,7.90
2023-03-06T02:10:21.544Z,7.82
2023-03-06T02:10:33.950Z,8.00
2023-03-06T02:10:58.901Z,7.57
2023-03-06T02:11:14.529Z,8.50
2023-03-06T02:11:30.148Z,7.82
2023-03-06T02:11:42.359Z,7.35
2023-03-06T02:11:54.915Z,7.78
2023-03-06T02:12:10.210Z,7.68
2023-03-06T02:12:23.340Z,7.68
2023-03-06T02:12:36.802Z,7.78
2023-03-06T02:12:50.922Z,7.57
2023-03-06T02:13:04.176Z,7.35
2023-03-06T02:13:17.142Z,7.78
2023-03-06T02:13:30.202Z,7.90
2023-03-06T02:13:43.952Z,7.38
2023-03-06T02:13:57.744Z,7.68
2023-03-06T02:14:11.404Z,7.60
2023-03-06T02:14:24.171Z,7.32
2023-03-06T02:14:38.615Z,7.60
2023-03-06T02:14:51.197Z,7.57
2023-03-06T02:15:04.780Z,7.68
2023-03-06T02:15:20.408Z,7.70
2023-03-06T02:15:33.482Z,7.57
2023-03-06T02:15:45.991Z,7.15
2023-03-06T02:15:59.051Z,7.03
2023-03-06T02:16:12.293Z,7.43
2023-03-06T02:16:28.016Z,7.68
2023-03-06T02:16:45.142Z,7.20
2023-03-06T02:16:58.526Z,6.97
2023-03-06T02:17:13.404Z,7.20
2023-03-06T02:17:27.265Z,7.70
2023-03-06T02:17:41.768Z,7.50
2023-03-06T02:17:54.661Z,7.50
2023-03-06T02:18:07.392Z,7.53
2023-03-06T02:18:19.924Z,7.68
2023-03-06T02:18:34.286Z,7.68
2023-03-06T02:18:46.983Z,7.57
2023-03-06T02:19:02.624Z,7.40
2023-03-06T02:19:28.546Z,7.03
2023-03-06T02:19:52.491Z,7.55
2023-03-06T02:20:12.227Z,7.93
2023-03-06T02:20:29.695Z,7.78
2023-03-06T02:20:46.269Z,7.47
2023-03-06T02:21:06.590Z,7.43
2023-03-06T02:21:25.201Z,7.55
2023-03-06T02:21:38.104Z,7.88
2023-03-06T02:21:54.014Z,7.68
2023-03-06T02:22:06.525Z,7.07
2023-03-06T02:22:20.034Z,6.93
2023-03-06T02:22:46.271Z,7.15
2023-03-06T02:23:04.264Z,6.75
2023-03-06T02:23:28.195Z,7.03
2023-03-06T02:23:51.509Z,7.18
2023-03-06T02:24:18.943Z,6.85
2023-03-06T02:24:37.662Z,6.63
2023-03-06T02:24:59.004Z,6.78
2023-03-06T02:25:22.899Z,7.60
2023-03-06T02:25:38.060Z,8.35
2023-03-06T02:25:52.783Z,7.90
2023-03-06T02:26:06.756Z,7.43
2023-03-06T02:26:20.916Z,7.25
2023-03-06T02:26:35.048Z,7.32
2023-03-06T02:26:48.414Z,7.50
2023-03-06T02:27:03.095Z,7.35
2023-03-06T02:27:17.178Z,7.05
2023-03-06T02:27:30.261Z,6.88
2023-03-06T02:27:42.840Z,6.93
2023-03-06T02:27:56.097Z,7.30
2023-03-06T02:28:11.932Z,7.20
2023-03-06T02:28:26.067Z,7.40
2023-03-06T02:28:39.068Z,7.22
2023-03-06T02:28:51.457Z,7.43
2023-03-06T02:29:03.962Z,7.57
2023-03-06T02:29:20.699Z,7.40
2023-03-06T02:29:35.243Z,7.25
2023-03-06T02:29:50.327Z,7.45
2023-03-06T02:30:06.478Z,7.30
2023-03-06T02:30:20.081Z,7.03
2023-03-06T02:30:32.649Z,7.07
2023-03-06T02:30:49.170Z,7.20
2023-03-06T02:31:02.487Z,6.88
2023-03-06T02:31:21.787Z,6.57
2023-03-06T02:31:35.137Z,6.97
2023-03-06T02:31:47.397Z,7.32
2023-03-06T02:31:59.865Z,7.40
2023-03-06T02:32:12.464Z,7.45
2023-03-06T02:32:25.262Z,7.22
2023-03-06T02:32:38.000Z,7.45
2023-03-06T02:32:51.414Z,7.30
2023-03-06T02:33:06.596Z,7.35
2023-03-06T02:33:20.980Z,7.22
2023-03-06T02:33:35.375Z,7.15
2023-03-06T02:34:00.465Z,7.38
2023-03-06T02:34:54.581Z,6.95
2023-03-06T02:35:19.356Z,7.22
2023-03-06T02:35:34.233Z,7.35
2023-03-06T02:35:52.646Z,7.20
2023-03-06T02:36:09.578Z,7.63
2023-03-06T02:36:25.321Z,7.60
2023-03-06T02:36:41.072Z,7.13
2023-03-06T02:36:56.630Z,6.95
2023-03-06T02:37:10.227Z,7.05
2023-03-06T02:37:27.450Z,6.88
2023-03-06T02:37:44.069Z,7.07
2023-03-06T02:37:58.389Z,7.40
2023-03-06T02:38:15.002Z,7.53
2023-03-06T02:38:34.813Z,7.18
2023-03-06T02:38:51.356Z,7.03
2023-03-06T02:39:08.521Z,7.40
2023-03-06T02:39:26.124Z,7.05
2023-03-06T02:39:44.380Z,7.30
2023-03-06T02:40:08.042Z,7.47
2023-03-06T02:40:26.703Z,7.43
2023-03-06T02:40:40.549Z,7.57
2023-03-06T02:41:03.673Z,7.10
2023-03-06T02:41:16.051Z,7.47
2023-03-06T02:41:28.277Z,7.93
2023-03-06T02:41:40.649Z,7.53
2023-03-06T02:41:54.892Z,7.10
2023-03-06T02:42:08.297Z,7.55
2023-03-06T02:42:26.839Z,7.65
2023-03-06T02:42:47.212Z,7.45
2023-03-06T02:43:00.826Z,7.38
2023-03-06T02:43:15.887Z,7.47
2023-03-06T02:43:31.934Z,7.53
2023-03-06T02:43:47.773Z,7.18
2023-03-06T02:43:59.783Z,7.10
2023-03-06T02:44:12.102Z,7.10
2023-03-06T02:44:28.695Z,7.45
2023-03-06T02:44:41.575Z,7.63
2023-03-06T02:44:55.636Z,7.53
2023-03-06T02:45:12.757Z,7.10
2023-03-06T02:45:32.056Z,7.10
2023-03-06T02:45:48.780Z,7.18
2023-03-06T02:46:01.386Z,6.82
2023-03-06T02:46:13.720Z,7.38
2023-03-06T02:46:26.895Z,7.80
2023-03-06T02:46:39.840Z,7.75
2023-03-06T02:46:52.523Z,7.45
2023-03-06T02:47:07.602Z,7.35
2023-03-06T02:47:20.111Z,7.32
2023-03-06T02:47:33.053Z,7.53
2023-03-06T02:47:47.191Z,7.65
2023-03-06T02:47:59.610Z,7.70
2023-03-06T02:48:11.746Z,7.38
2023-03-06T02:48:24.046Z,7.43
2023-03-06T02:48:37.147Z,7.55
2023-03-06T02:48:49.431Z,7.32
2023-03-06T02:49:01.638Z,7.35
2023-03-06T02:49:14.417Z,7.13
2023-03-06T02:49:26.736Z,7.25
2023-03-06T02:49:39.333Z,7.28
2023-03-06T02:49:51.901Z,7.32
2023-03-06T02:50:04.338Z,7.10
2023-03-06T02:50:18.149Z,7.22
2023-03-06T02:50:30.848Z,7.47
2023-03-06T02:50:45.109Z,7.50
2023-03-06T02:50:57.309Z,7.18
2023-03-06T02:51:09.789Z,7.15
2023-03-06T02:51:22.407Z,7.43
2023-03-06T02:51:34.839Z,7.35
2023-03-06T02:51:47.556Z,7.22
2023-03-06T02:52:00.146Z,7.20
2023-03-06T02:52:12.910Z,7.22
2023-03-06T02:52:25.423Z,6.82
2023-03-06T02:52:37.995Z,6.88
2023-03-06T02:52:52.035Z,6.82
2023-03-06T02:53:06.701Z,6.78
2023-03-06T02:53:22.988Z,6.93
2023-03-06T02:53:35.408Z,7.03
2023-03-06T02:53:47.818Z,7.07
2023-03-06T02:54:00.277Z,7.13
2023-03-06T02:54:13.231Z,7.25
2023-03-06T02:54:28.639Z,7.63
2023-03-06T02:54:40.956Z,7.80
2023-03-06T02:54:54.333Z,7.45
2023-03-06T02:55:07.122Z,7.10
2023-03-06T02:55:20.360Z,7.05
2023-03-06T02:55:34.617Z,7.10
2023-03-06T02:55:47.196Z,7.40
2023-03-06T02:56:01.233Z,7.57
2023-03-06T02:56:15.688Z,7.82
2023-03-06T02:56:27.820Z,7.72
2023-03-06T02:56:40.577Z,7.25
2023-03-06T02:56:53.349Z,7.38
2023-03-06T02:57:06.221Z,7.38
2023-03-06T02:57:19.544Z,7.50
2023-03-06T02:57:31.605Z,7.55
2023-03-06T02:57:44.590Z,7.47
2023-03-06T02:57:57.614Z,6.93
2023-03-06T02:58:10.043Z,7.15
2023-03-06T02:58:22.028Z,7.38
2023-03-06T02:58:34.553Z,7.45
2023-03-06T02:58:46.845Z,7.28
2023-03-06T02:58:59.297Z,7.03
2023-03-06T02:59:11.631Z,7.05
2023-03-06T02:59:24.572Z,7.25
2023-03-06T02:59:38.890Z,6.93
2023-03-06T02:59:52.150Z,7.00
2023-03-06T03:00:07.539Z,7.38
2023-03-06T03:00:20.755Z,7.47
2023-03-06T03:00:33.312Z,7.15
2023-03-06T03:00:47.962Z,7.20
2023-03-06T03:01:00.883Z,7.13
2023-03-06T03:01:14.125Z,7.10
2023-03-06T03:01:29.403Z,7.22
2023-03-06T03:01:42.879Z,7.47
2023-03-06T03:01:56.870Z,7.75
2023-03-06T03:02:11.215Z,7.45
2023-03-06T03:02:24.803Z,7.20
2023-03-06T03:02:39.388Z,7.40
2023-03-06T03:02:51.704Z,7.45
2023-03-06T03:03:05.591Z,7.78
2023-03-06T03:03:18.143Z,7.57
2023-03-06T03:03:31.177Z,7.63
2023-03-06T03:03:44.195Z,7.22
2023-03-06T03:03:56.531Z,7.13